createdAt,value
2022-08-03T00:01:49.887Z,100328.95
2022-08-03T00:06:52.264Z,100327.65
2022-08-03T00:11:54.662Z,100325.34
2022-08-03T00:16:57.676Z,100328.84
2022-08-03T00:22:00.314Z,100326.45
2022-08-03T00:27:03.145Z,100328.60
2022-08-03T00:32:05.863Z,100329.67
2022-08-03T00:37:08.778Z,100326.91
2022-08-03T00:42:11.529Z,100328.55
2022-08-03T00:47:14.022Z,100328.97
2022-08-03T00:52:17.178Z,100331.48
2022-08-03T00:57:19.596Z,100330.45
2022-08-03T01:02:22.125Z,100329.50
2022-08-03T01:07:40.391Z,100327.07
2022-08-03T01:12:52.616Z,100324.61
2022-08-03T01:17:59.562Z,100326.84
2022-08-03T01:23:33.902Z,100322.58
2022-08-03T01:28:58.217Z,100316.25
2022-08-03T01:34:05.590Z,100315.61
2022-08-03T01:39:12.502Z,100316.94
2022-08-03T01:44:29.417Z,100312.15
2022-08-03T01:49:38.393Z,100314.16
2022-08-03T01:54:45.209Z,100314.91
2022-08-03T01:59:50.579Z,100308.89
2022-08-03T02:04:54.202Z,100311.90
2022-08-03T02:09:58.640Z,100305.95
2022-08-03T02:15:02.283Z,100301.89
2022-08-03T02:30:46.178Z,100299.50
2022-08-03T02:35:55.171Z,100289.34
2022-08-03T02:40:58.695Z,100292.58
2022-08-03T02:46:01.272Z,100291.30
2022-08-03T02:51:05.062Z,100289.83
2022-08-03T03:06:39.128Z,100289.24
2022-08-03T03:11:44.047Z,100290.78
2022-08-03T03:16:47.904Z,100290.41
2022-08-03T03:21:55.653Z,100291.54
2022-08-03T03:26:58.690Z,100291.84
2022-08-03T03:32:02.608Z,100288.85
2022-08-03T03:37:05.923Z,100287.29
2022-08-03T03:42:08.489Z,100287.05
2022-08-03T03:54:08.708Z,100300.84
2022-08-03T03:59:14.569Z,100305.86
2022-08-03T04:04:39.834Z,100311.05
2022-08-03T04:10:00.997Z,100312.26
2022-08-03T04:15:22.593Z,100316.40
2022-08-03T04:20:33.811Z,100323.94
2022-08-03T04:25:41.701Z,100329.86
2022-08-03T04:30:56.767Z,100334.81
2022-08-03T04:36:04.087Z,100340.82
2022-08-03T04:41:13.033Z,100341.87
2022-08-03T04:46:20.361Z,100343.93
2022-08-03T04:51:26.764Z,100346.36
2022-08-03T04:56:29.304Z,100349.21
2022-08-03T05:12:40.566Z,100361.30
2022-08-03T05:17:45.655Z,100366.62
2022-08-03T05:22:48.030Z,100370.67
2022-08-03T05:27:52.188Z,100371.17
2022-08-03T06:24:25.976Z,100406.79
2022-08-03T06:47:17.943Z,100409.94
2022-08-03T06:52:38.156Z,100408.05
2022-08-03T06:57:41.078Z,100408.25
2022-08-03T07:02:43.513Z,100408.20
2022-08-03T07:07:46.178Z,100405.45
2022-08-03T07:12:55.967Z,100409.91
2022-08-03T07:18:14.841Z,100412.71
2022-08-03T07:23:19.306Z,100411.77
2022-08-03T07:28:22.074Z,100412.53
2022-08-03T07:33:24.621Z,100415.70
2022-08-03T07:38:27.377Z,100413.66
2022-08-03T07:43:30.057Z,100414.80
2022-08-03T07:48:32.570Z,100419.48
2022-08-03T07:53:37.824Z,100412.45
2022-08-03T07:58:49.713Z,100415.89
2022-08-03T08:03:53.710Z,100413.23
2022-08-03T08:09:01.575Z,100413.86
2022-08-03T08:14:05.283Z,100417.43
2022-08-03T08:19:07.681Z,100424.54
2022-08-03T08:24:13.410Z,100423.84
2022-08-03T08:29:23.258Z,100429.40
2022-08-03T08:34:25.785Z,100426.45
2022-08-03T08:39:28.173Z,100426.77
2022-08-03T08:44:30.673Z,100424.27
2022-08-03T08:49:36.328Z,100424.89
2022-08-03T08:54:41.468Z,100422.61
2022-08-03T08:59:48.395Z,100428.09
2022-08-03T09:04:53.176Z,100427.57
2022-08-03T09:10:11.672Z,100424.23
2022-08-03T09:22:28.252Z,100424.89
2022-08-03T09:27:43.457Z,100426.54
2022-08-03T09:32:47.104Z,100425.77
2022-08-03T09:38:13.813Z,100422.34
2022-08-03T09:43:17.033Z,100424.09
2022-08-03T09:48:34.567Z,100419.26
2022-08-03T09:53:57.258Z,100418.65
2022-08-03T09:59:02.333Z,100419.95
2022-08-03T10:04:05.371Z,100415.84
2022-08-03T10:09:16.526Z,100414.58
2022-08-03T10:14:19.599Z,100414.77
2022-08-03T10:19:22.523Z,100412.91
2022-08-03T10:24:28.120Z,100409.40
2022-08-03T10:29:36.887Z,100415.11
2022-08-03T10:34:44.693Z,100409.19
2022-08-03T10:39:54.886Z,100408.44
2022-08-03T10:45:22.458Z,100401.19
2022-08-03T10:50:25.891Z,100404.64
2022-08-03T10:56:01.710Z,100393.06
2022-08-03T11:01:09.695Z,100394.24
2022-08-03T11:06:24.475Z,100387.86
2022-08-03T11:11:28.549Z,100395.52
2022-08-03T11:16:49.602Z,100387.97
2022-08-03T11:21:53.804Z,100394.27
2022-08-03T11:27:20.195Z,100388.81
2022-08-03T11:32:46.442Z,100389.02
2022-08-03T11:38:01.998Z,100393.92
2022-08-03T11:43:31.233Z,100388.17
2022-08-03T11:48:35.259Z,100393.25
2022-08-03T11:53:41.788Z,100388.83
2022-08-03T11:59:01.191Z,100391.23
2022-08-03T12:04:11.697Z,100382.52
2022-08-03T12:09:17.348Z,100380.27
2022-08-03T12:14:48.492Z,100377.75
2022-08-03T12:19:46.381Z,100368.20
2022-08-03T12:25:39.247Z,100365.45
2022-08-03T12:30:43.507Z,100364.56
2022-08-03T12:36:06.183Z,100364.49
2022-08-03T12:41:16.603Z,100362.50
2022-08-03T12:46:19.629Z,100369.00
2022-08-03T12:51:21.997Z,100360.63
2022-08-03T12:56:25.112Z,100350.77
2022-08-03T13:01:36.644Z,100352.41
2022-08-03T13:06:39.140Z,100347.21
2022-08-03T13:11:57.759Z,100349.52
2022-08-03T13:17:06.127Z,100351.83
2022-08-03T13:22:17.176Z,100343.88
2022-08-03T13:28:04.079Z,100342.57
2022-08-03T13:32:42.540Z,100349.73
2022-08-03T13:37:47.818Z,100342.09
2022-08-03T13:42:51.551Z,100342.02
2022-08-03T13:47:54.609Z,100337.64
2022-08-03T13:52:57.766Z,100330.27
2022-08-03T13:58:04.030Z,100330.65
2022-08-03T14:03:15.455Z,100321.20
2022-08-03T14:08:18.131Z,100327.40
2022-08-03T14:13:20.560Z,100325.85
2022-08-03T14:19:33.344Z,100323.13
2022-08-03T14:24:55.313Z,100313.77
2022-08-03T14:29:59.806Z,100307.85
2022-08-03T14:35:02.516Z,100303.52
2022-08-03T14:40:05.918Z,100298.42
2022-08-03T14:45:09.594Z,100296.50
2022-08-03T14:50:37.685Z,100297.14
2022-08-03T14:55:49.743Z,100292.70
2022-08-03T15:00:55.360Z,100292.78
2022-08-03T15:05:57.810Z,100290.91
2022-08-03T15:11:00.206Z,100285.10
2022-08-03T15:16:02.678Z,100283.67
2022-08-03T15:21:06.577Z,100278.29
2022-08-03T15:26:32.687Z,100280.36
2022-08-03T15:31:38.330Z,100281.17
2022-08-03T15:36:40.768Z,100286.05
2022-08-03T15:41:43.192Z,100277.92
2022-08-03T15:46:46.101Z,100276.46
2022-08-03T15:51:48.677Z,100276.27
2022-08-03T15:56:51.141Z,100274.45
2022-08-03T16:01:56.473Z,100268.86
2022-08-03T16:06:58.985Z,100267.98
2022-08-03T16:12:01.374Z,100265.38
2022-08-03T16:17:04.527Z,100268.80
2022-08-03T16:22:08.037Z,100263.19
2022-08-03T16:27:17.316Z,100263.69
2022-08-03T16:32:34.071Z,100258.11
2022-08-03T16:37:38.667Z,100249.02
2022-08-03T16:42:41.773Z,100246.89
2022-08-03T16:47:44.253Z,100245.00
2022-08-03T16:52:48.427Z,100236.95
2022-08-03T16:57:59.818Z,100238.71
2022-08-03T17:03:19.014Z,100239.94
2022-08-03T17:08:26.757Z,100238.91
2022-08-03T17:13:39.052Z,100237.63
2022-08-03T17:18:52.588Z,100240.13
2022-08-03T17:24:03.137Z,100238.85
2022-08-03T17:35:47.127Z,100248.60
2022-08-03T17:40:56.262Z,100250.58
2022-08-03T17:45:58.845Z,100254.27
2022-08-03T17:51:06.703Z,100251.67
2022-08-03T17:56:44.941Z,100255.62
2022-08-03T18:02:30.496Z,100260.38
2022-08-03T18:07:41.352Z,100258.91
2022-08-03T18:12:53.104Z,100265.58
2022-08-03T18:18:10.861Z,100269.46
2022-08-03T18:23:25.154Z,100278.53
2022-08-03T18:28:38.395Z,100277.90
2022-08-03T18:34:16.919Z,100280.00
2022-08-03T18:39:05.185Z,100285.09
2022-08-03T18:44:53.358Z,100282.41
2022-08-03T18:49:41.805Z,100294.61
2022-08-03T18:55:04.485Z,100295.80
2022-08-03T19:00:17.105Z,100294.13
2022-08-03T19:05:53.709Z,100291.64
2022-08-03T19:10:57.735Z,100298.08
2022-08-03T19:16:04.589Z,100294.77
2022-08-03T19:26:36.858Z,100287.73
2022-08-03T19:31:39.919Z,100294.23
2022-08-03T19:37:02.638Z,100296.63
2022-08-03T19:42:20.114Z,100292.10
2022-08-03T19:47:29.709Z,100291.33
2022-08-03T19:52:35.374Z,100294.52
2022-08-03T19:57:43.940Z,100292.02
2022-08-03T20:02:50.902Z,100298.98
2022-08-03T20:07:54.213Z,100301.78
2022-08-03T20:12:57.425Z,100307.45
2022-08-03T20:18:00.203Z,100304.92
2022-08-03T20:23:13.708Z,100300.39
2022-08-03T20:28:28.977Z,100306.34
2022-08-03T20:33:46.195Z,100307.48
2022-08-03T20:38:52.133Z,100303.88
2022-08-03T20:43:59.071Z,100303.34
2022-08-03T20:49:03.816Z,100303.61
2022-08-03T20:59:38.464Z,100313.52
2022-08-03T21:04:50.190Z,100313.34
2022-08-03T21:09:57.055Z,100316.34
2022-08-03T21:13:02.096Z,100293.52
2022-08-03T21:13:07.723Z,100311.81
2022-08-03T21:15:03.422Z,100313.13
2022-08-03T21:20:08.221Z,100325.48
2022-08-03T21:25:15.023Z,100324.18
2022-08-03T21:30:18.871Z,100324.11
2022-08-03T21:35:23.042Z,100326.03
2022-08-03T21:40:25.762Z,100330.82
2022-08-03T21:45:28.168Z,100331.48
2022-08-03T21:50:34.792Z,100326.98
2022-08-03T21:55:39.878Z,100325.98
2022-08-03T22:00:43.149Z,100319.64
2022-08-03T22:05:45.758Z,100315.40
2022-08-03T22:10:51.145Z,100318.64
2022-08-03T22:15:53.779Z,100320.05
2022-08-03T22:20:57.360Z,100321.01
2022-08-03T22:26:04.081Z,100322.11
2022-08-03T22:31:30.679Z,100322.77
2022-08-03T22:37:39.828Z,100326.02
2022-08-03T22:42:52.437Z,100329.41
2022-08-03T22:47:56.088Z,100328.32
2022-08-03T22:52:58.482Z,100332.08
2022-08-03T22:58:00.879Z,100336.02
2022-08-03T23:03:06.161Z,100333.23
2022-08-03T23:08:09.563Z,100324.02
2022-08-03T23:13:13.196Z,100325.79
2022-08-03T23:18:16.355Z,100320.77
2022-08-03T23:23:20.760Z,100325.35
2022-08-03T23:28:24.884Z,100323.06
2022-08-03T23:33:29.100Z,100324.68
2022-08-03T23:38:35.673Z,100323.39
2022-08-03T23:43:51.502Z,100323.86
2022-08-03T23:48:56.488Z,100323.13
2022-08-03T23:54:31.103Z,100323.92
2022-08-03T23:59:42.455Z,100332.59
